Blessing Sw — 3FIP7 — position and weather

sailwx.info

Track history (hours):
 
Tides and Currents Weather Stations Pressure Air Temp Water Temp Dewpoint Dewpoint Depression Visibility Wind Speed Wind Dir Waves Ship Positions

Blessing Sw

Last reported at 2018-May-22 11:28 UTC. Time now 2018-May-23 15:09 UTC.
Position N 35°32' E 139°59'.

Length 171 m; draft 9.1 m.

Type: Cargo ship. MMSI: 372085000.

Date/timePositionNaut miles runAvg speedWind from/ knotsBaromVisibWave heightAir tempDewpointWater temp
2018-May-22 11:28N 35°32' E 139°59'0 0.1
2018-May-22 10:49N 35°32' E 139°59'0 0.0
2018-May-22 09:46N 35°32' E 139°59'0 0.0
2018-May-22 06:55N 35°32' E 139°59'0 0.1
2018-May-22 06:25N 35°32' E 139°59'0 0.0
2018-May-22 03:52N 35°32' E 139°59'4 4.7
2018-May-22 02:58N 35°31' E 139°54'511.5
2018-May-22 02:30N 35°27' E 139°50'611.6
2018-May-22 02:00N 35°22' E 139°45'5 9.9
2018-May-22 01:30N 35°17' E 139°45'510.7
2018-May-22 01:00N 35°12' E 139°47'4 8.7
2018-May-22 00:30N 35°08' E 139°45'4 7.3
2018-May-22 00:00N 35°04' E 139°44'3 5.7
2018-May-21 23:30N 35°02' E 139°43'3 6.0
2018-May-21 23:00N 34°59' E 139°41'4 7.2
2018-May-21 22:30N 34°55' E 139°41'3 6.0
2018-May-21 22:00N 34°53' E 139°42'3 5.1
2018-May-21 21:24N 34°50' E 139°44'3 7.2
2018-May-21 21:00N 34°47' E 139°46'  
Track history (hours):
 
Tides and Currents Weather Stations Pressure Air Temp Water Temp Dewpoint Dewpoint Depression Visibility Wind Speed Wind Dir Waves Ship Positions

Blessing Sw

Last reported at 2018-May-22 11:28 UTC. Time now 2018-May-23 15:09 UTC.
Position N 35°32' E 139°59'.

Length 171 m; draft 9.1 m.

Type: Cargo ship. MMSI: 372085000.

Date/timePositionNaut miles runAvg speedWind from/ knotsBaromVisibWave heightAir tempDewpointWater temp
2018-May-22 11:28N 35°32' E 139°59'0 0.1
2018-May-22 10:49N 35°32' E 139°59'0 0.0
2018-May-22 09:46N 35°32' E 139°59'0 0.0
2018-May-22 06:55N 35°32' E 139°59'0 0.1
2018-May-22 06:25N 35°32' E 139°59'0 0.0
2018-May-22 03:52N 35°32' E 139°59'4 4.7
2018-May-22 02:58N 35°31' E 139°54'511.5
2018-May-22 02:30N 35°27' E 139°50'611.6
2018-May-22 02:00N 35°22' E 139°45'5 9.9
2018-May-22 01:30N 35°17' E 139°45'510.7
2018-May-22 01:00N 35°12' E 139°47'4 8.7
2018-May-22 00:30N 35°08' E 139°45'4 7.3
2018-May-22 00:00N 35°04' E 139°44'3 5.7
2018-May-21 23:30N 35°02' E 139°43'3 6.0
2018-May-21 23:00N 34°59' E 139°41'4 7.2
2018-May-21 22:30N 34°55' E 139°41'3 6.0
2018-May-21 22:00N 34°53' E 139°42'3 5.1
2018-May-21 21:24N 34°50' E 139°44'3 7.2
2018-May-21 21:00N 34°47' E 139°46'  

Dump ship's entire track history